Time;durP1;ratioP1;P1;durP2;ratioP2;P2;SDS_P1;SDS_P2;PMS_P1;PMS_P2;Temp;Humidity;BMP_temperature;BMP_pressure;BME280_temperature;BME280_humidity;BME280_pressure;Samples;Min_cycle;Max_cycle;Signal;HPM_P1;HPM_P2
2022/10/17 00:01:53;;;;;;;9.03;2.57;;;;;;;4.74;100.00;101235.86;1728970;82;21690;-47
2022/10/17 00:04:21;;;;;;;7.10;4.23;;;;;;;4.77;100.00;101231.83;1727891;80;21944;-48
2022/10/17 00:06:47;;;;;;;6.77;4.17;;;;;;;4.80;100.00;101236.28;1726367;82;21061;-48
2022/10/17 00:09:14;;;;;;;10.73;4.57;;;;;;;4.81;100.00;101234.95;1728010;82;21054;-48
2022/10/17 00:11:42;;;;;;;10.50;6.20;;;;;;;4.82;100.00;101236.73;1722217;82;21113;-48
2022/10/17 00:14:08;;;;;;;16.53;7.60;;;;;;;4.84;100.00;101236.30;1727815;82;21544;-48
2022/10/17 00:16:36;;;;;;;17.17;9.30;;;;;;;4.85;100.00;101239.38;1725760;82;21726;-48
2022/10/17 00:19:04;;;;;;;17.83;10.77;;;;;;;4.85;100.00;101240.70;1724100;82;21040;-47
2022/10/17 00:21:31;;;;;;;16.20;9.83;;;;;;;4.87;100.00;101246.05;1722489;82;21154;-47
2022/10/17 00:23:59;;;;;;;17.33;10.97;;;;;;;4.89;100.00;101245.61;1664082;84;21069;-48
2022/10/17 00:26:28;;;;;;;18.73;11.67;;;;;;;4.92;100.00;101242.95;1727083;82;21077;-48
2022/10/17 00:28:55;;;;;;;17.10;11.43;;;;;;;4.97;100.00;101241.59;1661736;84;21778;-47
2022/10/17 00:31:23;;;;;;;16.77;12.37;;;;;;;5.01;100.00;101242.94;1660667;85;21081;-48
2022/10/17 00:33:50;;;;;;;20.50;12.87;;;;;;;5.04;100.00;101240.23;1660624;85;21066;-48
2022/10/17 00:36:19;;;;;;;21.80;12.90;;;;;;;5.08;100.00;101236.69;1666347;85;21603;-48
2022/10/17 00:38:51;;;;;;;20.07;13.83;;;;;;;5.10;100.00;101239.36;1716273;82;21239;-48
2022/10/17 00:41:20;;;;;;;17.37;12.77;;;;;;;5.11;100.00;101239.33;1722816;82;21937;-48
2022/10/17 00:44:05;;;;;;;15.47;12.57;;;;;;;5.09;100.00;101235.80;1719276;82;21046;-48
2022/10/17 00:46:35;;;;;;;19.50;12.87;;;;;;;5.08;100.00;101236.69;1721191;82;22345;-47
2022/10/17 00:49:09;;;;;;;14.90;10.90;;;;;;;5.06;100.00;101240.23;1720492;81;21026;-48
2022/10/17 00:51:52;;;;;;;15.77;11.57;;;;;;;5.04;100.00;101240.68;1721859;82;21050;-47
2022/10/17 00:54:22;;;;;;;15.63;11.17;;;;;;;5.02;100.00;101235.81;1724765;82;21839;-47
2022/10/17 00:56:49;;;;;;;18.87;14.57;;;;;;;4.98;100.00;101242.04;1663528;84;21619;-48
2022/10/17 00:59:16;;;;;;;23.47;17.00;;;;;;;4.94;100.00;101247.37;1719235;82;21187;-48
2022/10/17 01:01:57;;;;;;;25.60;17.50;;;;;;;4.92;100.00;101242.50;1723543;82;21050;-48
2022/10/17 01:04:25;;;;;;;21.77;15.47;;;;;;;4.91;100.00;101241.17;1721191;82;21073;-48
2022/10/17 01:06:52;;;;;;;15.00;10.30;;;;;;;4.90;100.00;101240.28;1723641;82;21837;-47
2022/10/17 01:09:18;;;;;;;15.97;10.43;;;;;;;4.89;100.00;101234.49;1661549;84;21091;-48
2022/10/17 01:12:32;;;;;;;13.03;8.57;;;;;;;4.90;100.00;101238.05;1719857;82;22277;-48
2022/10/17 01:15:15;;;;;;;6.60;5.33;;;;;;;4.92;100.00;101241.17;1721652;82;21002;-47
2022/10/17 01:18:12;;;;;;;9.43;3.63;;;;;;;4.96;100.00;101228.69;1666836;83;21071;-47
2022/10/17 01:21:10;;;;;;;5.73;3.13;;;;;;;5.01;100.00;101226.03;1721755;82;21745;-48
2022/10/17 01:24:25;;;;;;;8.33;4.43;;;;;;;5.03;100.00;101226.45;1661016;84;21081;-47
2022/10/17 01:27:41;;;;;;;7.37;3.00;;;;;;;5.05;100.00;101232.67;1648708;84;21082;-47
2022/10/17 01:30:29;;;;;;;;;;;;;;;5.06;100.00;101224.23;1663175;83;21552;-47
2022/10/17 01:33:13;;;;;;;4.97;2.77;;;;;;;5.06;100.00;101227.78;1664934;85;20319;-48
2022/10/17 01:35:47;;;;;;;;;;;;;;;5.07;100.00;101230.01;1724001;81;23210;-48
2022/10/17 01:38:22;;;;;;;4.40;2.77;;;;;;;5.07;100.00;101223.34;1722026;82;21053;-48
2022/10/17 01:42:08;;;;;;;3.03;2.10;;;;;;;5.03;100.00;101217.11;1867760;75;24436;-46
2022/10/17 01:45:15;;;;;;;4.30;2.53;;;;;;;5.02;100.00;101222.00;1870006;75;21020;-46
2022/10/17 01:47:46;;;;;;;8.10;3.23;;;;;;;5.01;100.00;101218.91;1870753;75;22146;-47
2022/10/17 01:50:20;;;;;;;6.07;2.70;;;;;;;5.00;100.00;101217.14;1839378;75;21702;-47
2022/10/17 01:52:51;;;;;;;5.15;2.83;;;;;;;5.00;100.00;101216.25;1867916;75;21977;-47
2022/10/17 01:55:23;;;;;;;6.93;3.30;;;;;;;5.01;100.00;101219.36;1876195;75;21055;-47
2022/10/17 01:57:53;;;;;;;5.17;3.17;;;;;;;5.02;100.00;101219.33;1871989;74;21090;-47
2022/10/17 02:00:22;;;;;;;4.13;2.03;;;;;;;5.02;100.00;101209.98;1886054;75;21794;-46
2022/10/17 02:03:01;;;;;;;3.87;2.73;;;;;;;5.05;100.00;101217.11;1875104;75;21056;-47
2022/10/17 02:05:35;;;;;;;5.23;3.50;;;;;;;5.06;100.00;101210.44;1869398;75;21029;-47
2022/10/17 02:08:02;;;;;;;5.42;3.65;;;;;;;5.07;100.00;101208.22;1844568;74;20981;-46
2022/10/17 02:10:46;;;;;;;4.43;3.50;;;;;;;5.07;100.00;101210.88;1878121;75;21005;-47
2022/10/17 02:13:36;;;;;;;4.90;3.57;;;;;;;5.07;100.00;101205.55;1868956;74;21827;-46
2022/10/17 02:16:28;;;;;;;6.63;3.80;;;;;;;5.06;100.00;101201.55;1884086;75;21013;-46
2022/10/17 02:19:36;;;;;;;6.13;4.23;;;;;;;5.04;100.00;101202.87;1809770;77;21073;-46
2022/10/17 02:22:38;;;;;;;6.77;3.53;;;;;;;5.03;100.00;101200.20;1808203;78;21276;-46
2022/10/17 02:25:46;;;;;;;4.97;3.53;;;;;;;5.01;100.00;101212.69;1834311;76;21497;-46
2022/10/17 02:28:20;;;;;;;9.20;4.27;;;;;;;4.98;100.00;101220.24;1823444;77;21793;-47
2022/10/17 02:31:10;;;;;;;6.60;3.60;;;;;;;4.96;100.00;101224.69;1761373;77;21143;-46
2022/10/17 02:33:42;;;;;;;9.17;4.80;;;;;;;4.94;100.00;101223.35;1806566;78;21063;-48
2022/10/17 02:36:14;;;;;;;16.03;5.77;;;;;;;4.93;100.00;101219.38;1814350;78;21024;-46
2022/10/17 02:38:41;;;;;;;9.20;5.53;;;;;;;4.93;100.00;101215.38;1812972;77;22149;-46
2022/10/17 02:41:10;;;;;;;10.83;6.03;;;;;;;4.92;100.00;101211.81;1790299;78;21920;-46
2022/10/17 02:43:37;;;;;;;6.87;4.30;;;;;;;4.94;100.00;101219.80;1785114;78;21061;-46
2022/10/17 02:46:05;;;;;;;5.70;3.70;;;;;;;4.94;100.00;101218.02;1785831;78;21512;-48
2022/10/17 02:48:46;;;;;;;7.73;4.07;;;;;;;4.97;100.00;101219.80;1789781;78;21082;-47
2022/10/17 02:51:34;;;;;;;6.10;3.30;;;;;;;5.00;100.00;101215.80;1788092;78;21121;-47
2022/10/17 02:54:15;;;;;;;4.63;3.33;;;;;;;5.02;100.00;101213.99;1758334;79;21827;-46
2022/10/17 02:56:58;;;;;;;4.37;3.03;;;;;;;5.04;100.00;101204.66;1782446;78;21108;-47
2022/10/17 02:59:24;;;;;;;6.00;3.20;;;;;;;5.03;100.00;101208.21;1785191;78;20976;-48
2022/10/17 03:01:51;;;;;;;5.70;3.87;;;;;;;5.02;100.00;101201.12;1786790;78;21435;-47
2022/10/17 03:04:17;;;;;;;8.03;3.73;;;;;;;4.99;100.00;101206.02;1783071;78;21560;-47
2022/10/17 03:06:46;;;;;;;6.07;4.47;;;;;;;4.98;100.00;101205.57;1783760;78;21929;-46
2022/10/17 03:09:14;;;;;;;8.00;5.13;;;;;;;4.95;100.00;101205.56;1783936;78;21074;-47
2022/10/17 03:11:41;;;;;;;11.53;9.07;;;;;;;4.93;100.00;101210.04;1788249;78;21070;-48
2022/10/17 03:14:09;;;;;;;20.70;14.17;;;;;;;4.90;100.00;101214.92;1784816;78;21537;-46
2022/10/17 03:16:35;;;;;;;17.33;11.73;;;;;;;4.89;100.00;101222.93;1784942;78;21055;-47
2022/10/17 03:19:03;;;;;;;18.87;13.33;;;;;;;4.87;100.00;101228.70;1785178;78;21845;-47
2022/10/17 03:21:32;;;;;;;23.70;15.30;;;;;;;4.86;100.00;101237.59;1780435;78;21237;-47
2022/10/17 03:23:59;;;;;;;20.20;15.03;;;;;;;4.87;100.00;101242.05;1793374;78;21052;-47
2022/10/17 03:26:28;;;;;;;20.00;15.37;;;;;;;4.87;100.00;101252.72;1787040;78;21054;-46
2022/10/17 03:28:55;;;;;;;13.87;10.00;;;;;;;4.86;100.00;101257.16;1787172;78;21059;-47
2022/10/17 03:31:22;;;;;;;8.60;7.27;;;;;;;4.87;100.00;101260.72;1784010;78;21911;-47
2022/10/17 03:33:49;;;;;;;7.97;5.83;;;;;;;4.89;100.00;101268.28;1784586;78;21136;-48
2022/10/17 03:36:18;;;;;;;7.67;3.40;;;;;;;4.90;100.00;101278.97;1788993;78;21061;-47
2022/10/17 03:38:45;;;;;;;10.37;4.93;;;;;;;4.91;100.00;101274.52;1790095;78;21137;-47
2022/10/17 03:41:12;;;;;;;8.13;4.23;;;;;;;4.91;100.00;101270.08;1798512;78;21587;-46
2022/10/17 03:43:40;;;;;;;5.97;3.83;;;;;;;4.93;100.00;101276.27;1779745;78;21650;-47
2022/10/17 03:46:07;;;;;;;4.93;3.70;;;;;;;4.93;100.00;101280.27;1840515;76;21010;-47
2022/10/17 03:48:34;;;;;;;5.03;3.57;;;;;;;4.93;100.00;101275.41;1816595;77;21110;-48
2022/10/17 03:51:04;;;;;;;6.60;4.03;;;;;;;4.92;100.00;101281.20;1814951;77;21455;-47
2022/10/17 03:53:32;;;;;;;8.30;4.00;;;;;;;4.89;100.00;101280.30;1811635;78;21045;-49
2022/10/17 03:56:12;;;;;;;9.37;5.73;;;;;;;4.87;100.00;101286.07;1810374;78;21954;-49
2022/10/17 03:58:39;;;;;;;8.70;5.60;;;;;;;4.83;100.00;101291.88;1810143;78;21100;-47
2022/10/17 04:01:07;;;;;;;8.53;5.77;;;;;;;4.78;100.00;101292.30;1806385;77;21072;-46
2022/10/17 04:03:35;;;;;;;7.30;6.23;;;;;;;4.74;100.00;101298.98;1810807;78;22165;-46
2022/10/17 04:06:03;;;;;;;9.07;5.97;;;;;;;4.67;100.00;101302.55;1815051;77;21060;-46
2022/10/17 04:08:32;;;;;;;13.70;5.53;;;;;;;4.58;100.00;101303.43;1811337;78;22738;-46
2022/10/17 04:11:06;;;;;;;5.50;4.67;;;;;;;4.47;100.00;101299.86;1813622;78;21900;-47
2022/10/17 04:13:34;;;;;;;7.30;5.90;;;;;;;4.33;100.00;101294.52;1814228;77;21069;-48
2022/10/17 04:16:07;;;;;;;10.27;4.93;;;;;;;4.26;100.00;101305.14;1809426;77;21414;-46
2022/10/17 04:18:35;;;;;;;8.23;3.77;;;;;;;4.22;100.00;101302.03;1783455;78;20995;-47
2022/10/17 04:21:03;;;;;;;11.93;6.53;;;;;;;4.21;100.00;101303.81;1811980;78;21806;-47
2022/10/17 04:23:32;;;;;;;11.50;8.03;;;;;;;4.19;100.00;101291.81;1783095;77;21033;-47
2022/10/17 04:26:02;;;;;;;10.90;8.60;;;;;;;4.16;100.00;101287.83;1805517;77;21295;-46
2022/10/17 04:28:29;;;;;;;13.23;8.77;;;;;;;4.15;100.00;101295.81;1810101;78;21026;-46
2022/10/17 04:31:02;;;;;;;16.83;9.87;;;;;;;4.14;100.00;101291.36;1814220;77;22207;-47
2022/10/17 04:33:32;;;;;;;16.45;10.30;;;;;;;4.12;100.00;101280.69;1839820;76;21971;-48
2022/10/17 04:36:05;;;;;;;11.93;7.57;;;;;;;4.11;100.00;101275.35;1839536;76;21013;-48
2022/10/17 04:38:31;;;;;;;12.67;5.97;;;;;;;4.09;100.00;101279.34;1807931;77;21073;-48
2022/10/17 04:41:03;;;;;;;9.93;6.43;;;;;;;4.09;100.00;101273.13;1813145;76;21032;-46
2022/10/17 04:43:32;;;;;;;10.47;6.10;;;;;;;4.07;100.00;101261.16;1817509;76;21445;-49
2022/10/17 04:46:00;;;;;;;17.70;8.17;;;;;;;4.09;100.00;101267.34;1820827;76;21754;-47
2022/10/17 04:48:27;;;;;;;13.17;9.10;;;;;;;4.12;100.00;101274.47;1814362;78;21551;-47
2022/10/17 04:50:56;;;;;;;18.80;11.23;;;;;;;4.15;100.00;101274.48;1817922;78;21069;-46
2022/10/17 04:53:32;;;;;;;14.63;10.50;;;;;;;4.19;100.00;101274.92;1814112;76;21075;-46
2022/10/17 04:55:59;;;;;;;16.60;10.33;;;;;;;4.25;100.00;101268.73;1791689;78;20982;-46
2022/10/17 04:58:27;;;;;;;18.43;8.07;;;;;;;4.29;100.00;101268.73;1830193;76;21866;-47
2022/10/17 05:00:55;;;;;;;17.17;9.37;;;;;;;4.36;100.00;101270.95;1816625;76;21025;-47
2022/10/17 05:03:23;;;;;;;23.30;12.60;;;;;;;4.42;100.00;101274.98;1816545;76;21005;-46
2022/10/17 05:05:50;;;;;;;24.20;16.00;;;;;;;4.49;100.00;101277.64;1820211;78;20963;-47
2022/10/17 05:08:18;;;;;;;19.33;13.60;;;;;;;4.56;100.00;101279.86;1795823;78;20977;-48
2022/10/17 05:10:46;;;;;;;17.87;13.57;;;;;;;4.63;100.00;101279.41;1817376;76;21025;-47
2022/10/17 05:13:14;;;;;;;23.43;13.23;;;;;;;4.72;100.00;101286.08;1814659;76;21098;-48
2022/10/17 05:15:42;;;;;;;16.67;11.53;;;;;;;4.83;100.00;101277.64;1817379;76;21096;-47
2022/10/17 05:18:10;;;;;;;12.53;8.53;;;;;;;4.97;100.00;101276.28;1817215;76;21044;-49
2022/10/17 05:20:37;;;;;;;8.63;6.00;;;;;;;5.08;100.00;101280.72;1812316;76;21032;-46
2022/10/17 05:23:03;;;;;;;11.50;6.20;;;;;;;5.21;100.00;101278.45;1793521;77;21782;-47
2022/10/17 05:25:31;;;;;;;7.77;5.17;;;;;;;5.33;100.00;101284.22;1821688;77;21425;-47
2022/10/17 05:27:58;;;;;;;11.93;5.47;;;;;;;5.46;100.00;101285.06;1818218;78;20962;-48
2022/10/17 05:30:24;;;;;;;11.13;7.40;;;;;;;5.57;100.00;101283.25;1823091;78;20965;-49
2022/10/17 05:32:53;;;;;;;9.00;7.67;;;;;;;5.68;100.00;101291.69;1822475;78;20955;-48
2022/10/17 05:35:21;;;;;;;9.77;7.33;;;;;;;5.80;100.00;101287.16;1819837;78;22411;-48
2022/10/17 05:37:47;;;;;;;12.40;9.53;;;;;;;5.92;100.00;101293.38;1821928;78;21057;-47
2022/10/17 05:40:14;;;;;;;9.17;7.13;;;;;;;6.05;100.00;101296.42;1817169;78;21544;-50
2022/10/17 05:42:46;;;;;;;8.90;7.13;;;;;;;6.18;100.00;101289.68;1803652;78;21480;-48
2022/10/17 05:45:13;;;;;;;15.43;7.30;;;;;;;6.31;100.00;101294.04;1801258;78;21364;-47
2022/10/17 05:47:40;;;;;;;5.43;4.63;;;;;;;6.44;100.00;101283.27;1778167;78;21943;-48
2022/10/17 05:50:08;;;;;;;5.97;4.13;;;;;;;6.58;100.00;101283.59;1792742;78;21092;-47
2022/10/17 05:52:37;;;;;;;7.27;4.07;;;;;;;6.70;100.00;101290.20;1776811;78;21490;-47
2022/10/17 05:55:14;;;;;;;8.45;3.10;;;;;;;6.81;100.00;101293.66;1796632;78;21041;-46
2022/10/17 05:57:41;;;;;;;5.97;3.63;;;;;;;6.90;100.00;101297.59;1815649;77;21138;-47
2022/10/17 06:00:11;;;;;;;10.93;3.90;;;;;;;6.96;100.00;101298.91;1790863;79;21951;-46
2022/10/17 06:02:42;;;;;;;7.83;3.67;;;;;;;7.03;100.00;101305.08;1796542;78;21023;-47
2022/10/17 06:05:09;;;;;;;15.27;4.90;;;;;;;7.08;100.00;101309.93;1817746;77;21543;-46
2022/10/17 06:07:36;;;;;;;12.70;7.28;;;;;;;7.12;100.00;101308.56;1817542;77;21051;-46
2022/10/17 06:10:04;;;;;;;10.67;6.87;;;;;;;7.16;100.00;101311.63;1814008;77;21411;-46
2022/10/17 06:12:31;;;;;;;16.03;9.23;;;;;;;7.20;100.00;101310.72;1814310;77;21846;-48
2022/10/17 06:15:00;;;;;;;15.67;7.43;;;;;;;7.25;100.00;101312.45;1794970;79;21046;-46
2022/10/17 06:17:29;;;;;;;13.10;7.17;;;;;;;7.30;100.00;101307.50;1789804;79;21042;-47
2022/10/17 06:19:56;;;;;;;19.83;11.87;;;;;;;7.35;100.00;101310.11;1790171;79;21058;-46
2022/10/17 06:22:23;;;;;;;13.47;8.47;;;;;;;7.39;100.00;101304.73;1791156;78;21128;-46
2022/10/17 06:24:51;;;;;;;6.03;5.37;;;;;;;7.44;100.00;101301.98;1789462;79;22630;-47
2022/10/17 06:27:17;;;;;;;8.90;7.17;;;;;;;7.49;100.00;101309.05;1784021;78;21068;-47
2022/10/17 06:29:45;;;;;;;6.77;5.27;;;;;;;7.55;100.00;101308.13;1786108;78;21008;-47
2022/10/17 06:32:11;;;;;;;5.97;4.33;;;;;;;7.60;100.00;101314.30;1790859;79;21072;-47
2022/10/17 06:34:38;;;;;;;6.77;3.47;;;;;;;7.66;100.00;101317.36;1783597;78;21083;-47
2022/10/17 06:37:04;;;;;;;10.30;3.63;;;;;;;7.72;100.00;101325.34;1790673;79;21975;-46
2022/10/17 06:39:34;;;;;;;3.90;3.03;;;;;;;7.77;100.00;101322.14;1781645;78;21025;-48
2022/10/17 06:42:06;;;;;;;3.55;3.22;;;;;;;7.85;100.00;101327.84;1789650;78;26182;-47
2022/10/17 06:44:39;;;;;;;5.53;3.83;;;;;;;7.93;100.00;101332.66;1783726;78;21629;-47
2022/10/17 06:47:24;;;;;;;6.60;3.93;;;;;;;8.02;100.00;101337.02;1798373;78;21037;-48
2022/10/17 06:49:53;;;;;;;10.32;5.78;;;;;;;8.10;100.00;101335.13;1801336;78;21816;-49
2022/10/17 06:52:33;;;;;;;4.40;3.95;;;;;;;8.18;100.00;101339.94;1803520;78;21340;-48
2022/10/17 06:55:18;;;;;;;7.75;4.25;;;;;;;8.28;100.00;101336.23;1782398;78;21530;-48
2022/10/17 06:57:51;;;;;;;8.85;5.10;;;;;;;8.38;100.00;101327.64;1790822;79;21480;-48
2022/10/17 07:00:28;;;;;;;7.62;4.33;;;;;;;8.47;100.00;101338.69;1716320;81;21525;-48
2022/10/17 07:02:56;;;;;;;5.75;3.72;;;;;;;8.58;100.00;101332.72;1804085;78;21930;-48
2022/10/17 07:05:23;;;;;;;4.53;3.27;;;;;;;8.68;100.00;101341.03;1806878;78;21049;-48
2022/10/17 07:07:51;;;;;;;8.05;3.58;;;;;;;8.78;100.00;101344.02;1799767;77;21012;-48
2022/10/17 07:10:17;;;;;;;6.20;3.58;;;;;;;8.88;100.00;101335.36;1776758;78;21498;-48
2022/10/17 07:12:45;;;;;;;8.13;3.72;;;;;;;8.97;100.00;101338.79;1809939;77;21636;-48
2022/10/17 07:15:11;;;;;;;6.53;4.20;;;;;;;9.09;100.00;101328.31;1819977;77;21832;-47
2022/10/17 07:17:40;;;;;;;5.87;3.80;;;;;;;9.20;100.00;101320.03;1779762;78;21048;-47
2022/10/17 07:20:09;;;;;;;8.08;4.10;;;;;;;9.31;100.00;101314.91;1778012;78;21072;-49
2022/10/17 07:22:37;;;;;;;7.30;3.12;;;;;;;9.43;100.00;101321.87;1799586;78;21104;-50
2022/10/17 07:25:04;;;;;;;7.53;4.65;;;;;;;9.55;100.00;101327.00;1799275;78;21558;-50
2022/10/17 07:27:39;;;;;;;6.25;2.52;;;;;;;9.64;100.00;101334.89;1802661;78;21755;-50
2022/10/17 07:30:08;;;;;;;7.00;3.10;;;;;;;9.75;100.00;101337.38;1798588;78;21464;-49
2022/10/17 07:32:36;;;;;;;6.15;1.75;;;;;;;9.86;100.00;101346.13;1811645;77;21396;-49
2022/10/17 07:35:04;;;;;;;4.00;1.77;;;;;;;9.97;100.00;101349.46;1791603;79;21525;-50
2022/10/17 07:37:32;;;;;;;3.50;1.32;;;;;;;10.07;100.00;101344.33;1795795;79;21018;-49
2022/10/17 07:39:59;;;;;;;5.20;1.50;;;;;;;10.20;100.00;101336.47;1783465;78;21459;-49
2022/10/17 07:42:27;;;;;;;5.97;1.40;;;;;;;10.31;100.00;101335.33;1787801;77;21383;-49
2022/10/17 07:44:54;;;;;;;3.40;1.47;;;;;;;10.41;100.00;101331.05;1808002;78;21033;-49
2022/10/17 07:47:21;;;;;;;4.55;1.65;;;;;;;10.49;100.00;101316.07;1799153;77;21787;-49
2022/10/17 07:49:48;;;;;;;2.83;1.65;;;;;;;10.57;100.00;101311.39;1807765;77;21507;-51
2022/10/17 07:52:16;;;;;;;4.28;1.92;;;;;;;10.64;100.00;101313.02;1805601;78;21921;-49
2022/10/17 07:54:43;;;;;;;10.45;1.85;;;;;;;10.72;100.00;101312.36;1808841;78;20983;-50
2022/10/17 07:57:11;;;;;;;4.50;1.57;;;;;;;10.83;100.00;101312.11;1796416;78;20944;-51
2022/10/17 07:59:39;;;;;;;6.00;1.17;;;;;;;10.92;100.00;101313.23;1821591;77;20977;-50
2022/10/17 08:02:06;;;;;;;2.75;1.07;;;;;;;11.03;100.00;101313.86;1831650;76;20951;-50
2022/10/17 08:04:35;;;;;;;3.70;1.10;;;;;;;11.13;100.00;101316.75;1809390;78;21886;-50
2022/10/17 08:07:03;;;;;;;3.80;1.10;;;;;;;11.23;100.00;101311.52;1803539;77;21451;-49
2022/10/17 08:09:29;;;;;;;4.58;1.55;;;;;;;11.33;100.00;101300.92;1807810;78;20939;-48
2022/10/17 08:11:56;;;;;;;3.95;1.07;;;;;;;11.44;100.00;101310.07;1833266;76;20970;-51
2022/10/17 08:14:23;;;;;;;5.80;1.10;;;;;;;11.52;100.00;101303.12;1831445;76;21563;-49
2022/10/17 08:16:53;;;;;;;3.02;1.10;;;;;;;11.60;100.00;101307.83;1801338;78;20978;-51
2022/10/17 08:19:20;;;;;;;8.30;1.20;;;;;;;11.68;100.00;101306.69;1798909;78;21382;-48
2022/10/17 08:21:48;;;;;;;6.85;1.10;;;;;;;11.75;100.00;101305.62;1810767;77;21370;-50
2022/10/17 08:24:15;;;;;;;4.85;1.30;;;;;;;11.84;100.00;101307.63;1836806;76;21799;-49
2022/10/17 08:26:41;;;;;;;3.40;1.15;;;;;;;11.92;100.00;101298.84;1814499;77;20974;-49
2022/10/17 08:29:13;;;;;;;3.15;1.20;;;;;;;11.98;100.00;101298.69;1801279;77;22387;-48
2022/10/17 08:31:40;;;;;;;2.45;1.57;;;;;;;12.05;100.00;101297.11;1830903;76;21424;-51
2022/10/17 08:34:06;;;;;;;3.70;1.30;;;;;;;12.15;100.00;101299.08;1829591;76;20994;-49
2022/10/17 08:36:33;;;;;;;3.25;2.55;;;;;;;12.22;100.00;101297.95;1792670;78;22560;-49
2022/10/17 08:38:59;;;;;;;8.68;1.60;;;;;;;12.28;100.00;101300.45;1818690;77;21413;-49
2022/10/17 08:42:02;;;;;;;3.72;1.35;;;;;;;12.36;100.00;101294.34;1814842;78;21994;-49
2022/10/17 08:44:55;;;;;;;9.50;1.22;;;;;;;12.45;100.00;101296.77;1814463;78;21099;-46
2022/10/17 08:47:26;;;;;;;2.77;1.35;;;;;;;12.55;100.00;101287.91;1818462;78;21461;-46
2022/10/17 08:49:58;;;;;;;2.08;1.20;;;;;;;12.65;100.00;101291.20;1803295;78;21386;-46
2022/10/17 08:52:39;;;;;;;3.37;1.65;;;;;;;12.73;100.00;101279.67;1802095;77;21416;-47
2022/10/17 08:55:16;;;;;;;4.05;1.27;;;;;;;12.81;100.00;101278.95;1810749;78;22905;-46
2022/10/17 08:57:43;;;;;;;4.37;0.93;;;;;;;12.89;100.00;101276.88;1789955;78;21097;-46
2022/10/17 09:00:17;;;;;;;3.20;1.05;;;;;;;12.97;100.00;101272.56;1812096;77;21039;-47
2022/10/17 09:02:52;;;;;;;4.83;1.00;;;;;;;13.04;100.00;101267.35;1827615;76;21057;-49
2022/10/17 09:05:57;;;;;;;7.97;1.20;;;;;;;13.10;100.00;101267.17;1828554;76;21515;-47
2022/10/17 09:08:46;;;;;;;1.50;1.07;;;;;;;13.16;100.00;101266.98;1830535;76;21047;-49
2022/10/17 09:11:41;;;;;;;4.15;1.27;;;;;;;13.22;100.00;101273.52;1828312;76;20986;-47
2022/10/17 09:14:39;;;;;;;3.87;1.55;;;;;;;13.27;100.00;101274.72;1808365;78;21058;-49
2022/10/17 09:17:24;;;;;;;2.47;0.93;;;;;;;13.41;100.00;101294.92;1796188;77;21054;-47
2022/10/17 09:20:18;;;;;;;1.05;0.80;;;;;;;13.41;100.00;101294.92;1809195;77;21081;-48
2022/10/17 09:22:50;;;;;;;1.40;0.80;;;;;;;13.47;100.00;101285.23;1801292;77;21832;-47
2022/10/17 09:25:18;;;;;;;1.82;0.90;;;;;;;13.52;100.00;101295.44;1808577;77;21251;-48
2022/10/17 09:27:55;;;;;;;2.40;0.80;;;;;;;13.56;100.00;101282.19;1799028;77;21063;-48
2022/10/17 09:30:45;;;;;;;2.17;0.90;;;;;;;13.62;100.00;101286.02;1812375;77;21387;-48
2022/10/17 09:33:17;;;;;;;2.00;0.90;;;;;;;13.68;100.00;101275.46;1799498;77;21028;-47
2022/10/17 09:35:44;;;;;;;4.33;1.10;;;;;;;13.74;100.00;101279.28;1800229;78;21835;-49
2022/10/17 09:38:20;;;;;;;1.85;0.90;;;;;;;13.80;100.00;101276.34;1794945;78;21640;-49
2022/10/17 09:40:58;;;;;;;5.60;1.10;;;;;;;13.83;100.00;101264.53;1812779;78;21069;-49
2022/10/17 09:43:25;;;;;;;5.75;1.20;;;;;;;13.89;100.00;101267.87;1787076;77;21082;-48
2022/10/17 09:46:13;;;;;;;2.35;1.45;;;;;;;13.95;100.00;101269.48;1802380;78;21068;-46
2022/10/17 09:48:59;;;;;;;3.87;1.20;;;;;;;14.00;100.00;101271.53;1797244;78;23171;-48
2022/10/17 09:51:25;;;;;;;3.40;1.30;;;;;;;14.07;100.00;101273.53;1773121;78;20998;-47
2022/10/17 09:54:02;;;;;;;3.25;1.37;;;;;;;14.11;100.00;101266.60;1767113;80;21036;-47
2022/10/17 09:56:29;;;;;;;3.77;1.00;;;;;;;14.14;100.00;101258.34;1743470;80;21042;-47
2022/10/17 09:58:56;;;;;;;1.90;1.12;;;;;;;14.19;100.00;101267.19;1767694;79;21070;-49
2022/10/17 10:01:29;;;;;;;5.97;1.20;;;;;;;14.23;100.00;101267.92;1792944;78;21856;-49
2022/10/17 10:04:11;;;;;;;1.75;0.98;;;;;;;14.26;100.00;101258.34;1786441;79;21428;-49
2022/10/17 10:06:39;;;;;;;1.42;1.00;;;;;;;14.27;100.00;101256.05;1786582;79;21542;-49
2022/10/17 10:09:23;;;;;;;2.60;0.78;;;;;;;14.29;100.00;101250.95;1786066;79;21111;-49
2022/10/17 10:11:54;;;;;;;3.08;0.82;;;;;;;14.32;100.00;101252.67;1786371;79;21634;-49
2022/10/17 10:14:33;;;;;;;2.85;0.93;;;;;;;14.35;100.00;101262.04;1790359;79;21813;-50
2022/10/17 10:17:05;;;;;;;2.62;0.90;;;;;;;14.37;100.00;101251.53;1789775;79;21420;-48
2022/10/17 10:19:35;;;;;;;4.37;1.00;;;;;;;14.40;100.00;101241.09;1790712;79;21248;-49
2022/10/17 10:22:15;;;;;;;4.95;1.47;;;;;;;14.44;100.00;101237.80;1785402;79;21364;-49
2022/10/17 10:24:41;;;;;;;2.27;1.05;;;;;;;14.47;100.00;101236.30;1783200;79;21068;-49
2022/10/17 10:27:14;;;;;;;1.17;0.90;;;;;;;14.49;100.00;101238.00;1790466;78;22313;-50
2022/10/17 10:29:50;;;;;;;1.47;1.00;;;;;;;14.52;100.00;101234.30;1770778;79;21547;-48
2022/10/17 10:32:27;;;;;;;1.77;1.02;;;;;;;14.55;100.00;101236.86;1781984;79;21468;-48
2022/10/17 10:35:15;;;;;;;1.65;1.20;;;;;;;14.59;100.00;101248.00;1801547;78;21022;-50
2022/10/17 10:37:43;;;;;;;5.87;1.00;;;;;;;14.62;100.00;101251.95;1785125;79;21064;-48
2022/10/17 10:40:33;;;;;;;1.32;0.98;;;;;;;14.66;100.00;101250.86;1772473;78;21819;-49
2022/10/17 10:43:00;;;;;;;3.50;1.20;;;;;;;14.68;100.00;101249.86;1787238;78;21316;-49
2022/10/17 10:45:41;;;;;;;4.95;1.25;;;;;;;14.70;100.00;101248.45;1795430;78;21533;-50
2022/10/17 10:48:24;;;;;;;1.50;1.00;;;;;;;14.72;100.00;101251.48;1794721;78;21047;-49
2022/10/17 10:51:07;;;;;;;3.08;1.20;;;;;;;14.73;100.00;101250.53;1795340;78;22325;-49
2022/10/17 10:53:52;;;;;;;1.40;0.90;;;;;;;14.74;100.00;101248.71;1790471;78;21902;-50
2022/10/17 10:56:39;;;;;;;3.08;1.00;;;;;;;14.74;100.00;101247.36;1795728;78;21050;-48
2022/10/17 10:59:32;;;;;;;4.55;1.72;;;;;;;14.74;100.00;101248.71;1792925;78;22412;-51
2022/10/17 11:02:22;;;;;;;4.47;1.15;;;;;;;14.76;100.00;101255.84;1790874;78;21066;-49
2022/10/17 11:05:11;;;;;;;1.50;1.00;;;;;;;14.80;100.00;101253.87;1796621;78;21072;-49
2022/10/17 11:07:59;;;;;;;3.60;1.17;;;;;;;14.84;100.00;101260.94;1797886;78;22901;-49
2022/10/17 11:11:16;;;;;;;4.00;1.42;;;;;;;14.88;100.00;101259.88;1799493;78;21570;-48
2022/10/17 11:14:08;;;;;;;4.20;1.45;;;;;;;14.91;100.00;101250.71;1791294;78;21384;-49
2022/10/17 11:16:50;;;;;;;3.47;0.82;;;;;;;14.93;100.00;101236.63;1795688;78;21019;-49
2022/10/17 11:19:40;;;;;;;2.10;0.90;;;;;;;14.95;100.00;101231.55;1782832;77;21015;-48
2022/10/17 11:22:20;;;;;;;6.22;1.07;;;;;;;14.97;100.00;101228.28;1792932;78;21924;-48
2022/10/17 11:24:59;;;;;;;2.15;0.85;;;;;;;14.99;100.00;101227.75;1797195;78;20982;-50
2022/10/17 11:27:28;;;;;;;2.47;0.90;;;;;;;15.00;100.00;101224.09;1794235;78;21017;-48
2022/10/17 11:29:54;;;;;;;3.05;1.20;;;;;;;15.03;100.00;101225.80;1795802;78;21391;-48
2022/10/17 11:32:29;;;;;;;1.90;0.90;;;;;;;15.03;100.00;101221.26;1797056;78;20999;-48
2022/10/17 11:35:01;;;;;;;2.72;1.00;;;;;;;15.02;100.00;101214.06;1772951;78;21787;-48
2022/10/17 11:37:38;;;;;;;2.20;1.00;;;;;;;15.02;100.00;101211.36;1797193;78;20990;-50
2022/10/17 11:40:16;;;;;;;3.72;1.00;;;;;;;15.04;100.00;101209.94;1812719;77;21699;-49
2022/10/17 11:43:12;;;;;;;4.15;1.00;;;;;;;15.06;100.00;101209.38;1787479;77;21028;-50
2022/10/17 11:45:46;;;;;;;3.47;0.90;;;;;;;15.09;100.00;101208.78;1762481;79;21486;-48
2022/10/17 11:48:23;;;;;;;1.20;0.90;;;;;;;15.11;100.00;101201.47;1791884;79;21810;-49
2022/10/17 11:51:10;;;;;;;1.45;0.80;;;;;;;15.13;100.00;101194.62;1778018;79;21578;-49